createdAt,value
2022-11-13T00:02:42.749Z,52390.82
2022-11-13T00:05:33.475Z,52366.71
2022-11-13T00:08:24.032Z,52376.76
2022-11-13T00:11:15.309Z,52381.18
2022-11-13T00:14:05.586Z,52386.40
2022-11-13T00:16:56.361Z,52372.74
2022-11-13T00:19:46.102Z,52390.82
2022-11-13T00:22:36.204Z,52384.39
2022-11-13T00:25:26.923Z,52385.60
2022-11-13T00:28:17.613Z,52381.18
2022-11-13T00:31:07.866Z,52378.77
2022-11-13T00:34:25.939Z,52377.56
2022-11-13T00:37:08.919Z,52383.19
2022-11-13T00:39:59.877Z,52380.38
2022-11-13T00:42:50.536Z,52379.57
2022-11-13T00:45:41.057Z,52378.36
2022-11-13T00:48:31.269Z,52371.94
2022-11-13T00:51:21.702Z,52392.03
2022-11-13T00:54:12.028Z,52390.02
2022-11-13T00:57:02.532Z,52381.58
2022-11-13T00:59:53.123Z,52384.79
2022-11-13T01:02:43.514Z,52384.39
2022-11-13T01:05:33.977Z,52376.76
2022-11-13T01:08:24.085Z,52383.59
2022-11-13T01:11:15.070Z,52391.23
2022-11-13T01:14:05.415Z,52378.77
2022-11-13T01:16:55.864Z,52377.56
2022-11-13T01:19:45.910Z,52377.96
2022-11-13T01:22:36.156Z,52381.98
2022-11-13T01:25:26.560Z,52381.98
2022-11-13T01:28:17.231Z,52377.16
2022-11-13T01:31:09.317Z,52358.27
2022-11-13T01:33:57.649Z,52379.57
2022-11-13T01:36:47.838Z,52373.54
2022-11-13T01:39:38.781Z,52377.16
2022-11-13T01:42:29.063Z,52391.63
2022-11-13T01:46:05.752Z,52383.99
2022-11-13T01:49:06.057Z,52386.40
2022-11-13T01:51:57.267Z,52401.27
2022-11-13T01:54:50.116Z,52388.82
2022-11-13T01:57:40.328Z,52392.83
2022-11-13T02:00:30.688Z,52368.32
2022-11-13T02:03:21.028Z,52376.76
2022-11-13T02:06:11.348Z,52379.17
2022-11-13T02:09:01.649Z,52380.38
2022-11-13T02:11:51.929Z,52388.41
2022-11-13T02:14:43.487Z,52386.80
2022-11-13T02:17:35.654Z,52375.55
2022-11-13T02:20:28.838Z,52386.80
2022-11-13T02:23:22.516Z,52401.68
2022-11-13T02:26:12.626Z,52393.64
2022-11-13T02:29:02.605Z,52388.41
2022-11-13T02:31:53.008Z,52384.79
2022-11-13T02:34:42.933Z,52377.16
2022-11-13T02:37:33.430Z,52383.99
2022-11-13T02:40:23.919Z,52381.98
2022-11-13T02:43:14.131Z,52382.38
2022-11-13T02:46:04.772Z,52391.23
2022-11-13T02:48:54.975Z,52390.42
2022-11-13T02:51:44.996Z,52391.23
2022-11-13T02:54:35.321Z,52395.65
2022-11-13T02:57:25.644Z,52389.22
2022-11-13T03:00:17.432Z,52392.43
2022-11-13T03:03:07.930Z,52379.97
2022-11-13T03:05:57.909Z,52388.81
2022-11-13T03:08:48.203Z,52398.46
2022-11-13T03:11:38.508Z,52381.98
2022-11-13T03:14:28.727Z,52398.86
2022-11-13T03:17:19.010Z,52396.05
2022-11-13T03:20:10.702Z,52379.57
2022-11-13T03:23:00.738Z,52398.05
2022-11-13T03:25:51.118Z,52367.12
2022-11-13T03:28:41.493Z,52383.99
2022-11-13T03:31:31.507Z,52390.02
2022-11-13T03:34:21.437Z,52390.42
2022-11-13T03:37:11.808Z,52381.58
2022-11-13T03:40:02.158Z,52383.59
2022-11-13T03:42:52.535Z,52381.98
2022-11-13T03:45:43.080Z,52389.62
2022-11-13T03:48:33.542Z,52380.38
2022-11-13T03:51:23.809Z,52394.84
2022-11-13T03:54:13.815Z,52391.63
2022-11-13T03:57:04.070Z,52385.20
2022-11-13T03:59:54.498Z,52379.98
2022-11-13T04:02:44.903Z,52384.39
2022-11-13T04:05:35.205Z,52393.64
2022-11-13T04:08:25.726Z,52395.24
2022-11-13T04:11:16.358Z,52384.39
2022-11-13T04:14:06.473Z,52386.80
2022-11-13T04:16:56.892Z,52379.17
2022-11-13T04:19:47.125Z,52381.98
2022-11-13T04:22:37.194Z,52366.31
2022-11-13T04:25:27.593Z,52375.15
2022-11-13T04:28:18.164Z,52393.24
2022-11-13T04:31:08.451Z,52405.29
2022-11-13T04:33:58.704Z,52387.21
2022-11-13T04:36:48.779Z,52379.57
2022-11-13T04:39:38.930Z,52392.43
2022-11-13T04:42:46.753Z,52383.99
2022-11-13T04:45:37.711Z,52386.00
2022-11-13T04:48:28.631Z,52384.39
2022-11-13T04:51:19.138Z,52373.54
2022-11-13T04:54:09.751Z,52377.56
2022-11-13T04:56:59.949Z,52392.43
2022-11-13T04:59:50.423Z,52390.42
2022-11-13T05:02:41.027Z,52379.57
2022-11-13T05:05:31.185Z,52376.36
2022-11-13T05:08:20.933Z,52382.38
2022-11-13T05:11:10.973Z,52383.19
2022-11-13T05:14:03.701Z,52384.79
2022-11-13T05:16:54.308Z,52377.96
2022-11-13T05:19:44.982Z,52374.34
2022-11-13T05:22:35.001Z,52381.18
2022-11-13T05:25:25.428Z,52366.30
2022-11-13T05:28:16.366Z,52386.00
2022-11-13T05:31:09.197Z,52380.38
2022-11-13T05:34:05.322Z,52381.98
2022-11-13T05:36:56.556Z,52379.97
2022-11-13T05:39:47.539Z,52380.38
2022-11-13T05:42:38.038Z,52371.53
2022-11-13T05:45:29.200Z,52378.37
2022-11-13T05:48:19.717Z,52367.12
2022-11-13T05:51:11.486Z,52383.19
2022-11-13T05:54:01.593Z,52386.40
2022-11-13T05:56:51.979Z,52388.81
2022-11-13T05:59:42.689Z,52366.30
2022-11-13T06:02:33.168Z,52379.57
2022-11-13T06:05:23.496Z,52365.10
2022-11-13T06:08:13.433Z,52381.18
2022-11-13T06:11:04.148Z,52383.99
2022-11-13T06:13:54.982Z,52386.00
2022-11-13T06:16:44.836Z,52390.82
2022-11-13T06:19:34.977Z,52377.96
2022-11-13T06:22:25.107Z,52384.39
2022-11-13T06:25:15.280Z,52394.04
2022-11-13T06:28:05.276Z,52388.81
2022-11-13T06:30:55.400Z,52378.37
2022-11-13T06:33:45.855Z,52374.75
2022-11-13T06:36:37.283Z,52387.61
2022-11-13T06:39:27.571Z,52374.75
2022-11-13T06:42:17.329Z,52365.91
2022-11-13T06:45:09.118Z,52371.13
2022-11-13T06:47:59.740Z,52364.30
2022-11-13T06:50:50.432Z,52380.78
2022-11-13T06:53:41.043Z,52376.76
2022-11-13T06:56:31.533Z,52365.91
2022-11-13T06:59:22.126Z,52368.72
2022-11-13T07:02:13.747Z,52374.34
2022-11-13T07:05:04.026Z,52380.38
2022-11-13T07:07:54.827Z,52380.38
2022-11-13T07:56:07.526Z,52365.10
2022-11-13T07:58:58.628Z,52353.45
2022-11-13T08:01:49.036Z,52365.91
2022-11-13T08:04:39.804Z,52365.51
2022-11-13T08:07:30.517Z,52351.44
2022-11-13T08:10:21.284Z,52343.40
2022-11-13T08:13:12.297Z,52352.25
2022-11-13T08:16:03.585Z,52349.43
2022-11-13T08:18:54.682Z,52352.64
2022-11-13T08:21:45.136Z,52351.44
2022-11-13T08:24:35.553Z,52346.62
2022-11-13T08:27:25.926Z,52336.97
2022-11-13T08:30:17.597Z,52342.20
2022-11-13T08:33:08.010Z,52347.02
2022-11-13T08:35:58.829Z,52342.20
2022-11-13T08:38:50.572Z,52348.22
2022-11-13T08:41:40.908Z,52353.04
2022-11-13T08:44:31.031Z,52345.01
2022-11-13T08:47:23.421Z,52351.84
2022-11-13T08:50:17.576Z,52339.39
2022-11-13T08:53:07.702Z,52349.02
2022-11-13T08:56:00.859Z,52337.77
2022-11-13T08:58:51.198Z,52350.64
2022-11-13T09:01:41.237Z,52353.85
2022-11-13T09:04:31.728Z,52350.63
2022-11-13T09:07:27.012Z,52348.23
2022-11-13T09:10:17.935Z,52340.19
2022-11-13T09:13:09.936Z,52349.03
2022-11-13T09:16:02.396Z,52340.19
2022-11-13T09:18:53.562Z,52340.99
2022-11-13T09:21:43.808Z,52330.14
2022-11-13T09:24:34.098Z,52335.37
2022-11-13T09:27:23.956Z,52344.61
2022-11-13T09:30:15.952Z,52343.80
2022-11-13T09:33:06.864Z,52338.18
2022-11-13T09:35:56.929Z,52325.32
2022-11-13T09:38:47.101Z,52328.13
2022-11-13T09:41:39.081Z,52336.57
2022-11-13T09:44:39.381Z,52330.95
2022-11-13T09:47:31.623Z,52330.54
2022-11-13T09:50:23.723Z,52332.95
2022-11-13T09:53:14.586Z,52333.76
2022-11-13T09:56:09.980Z,52330.95
2022-11-13T09:59:16.942Z,52328.93
2022-11-13T10:02:15.522Z,52338.58
2022-11-13T10:05:08.911Z,52329.34
2022-11-13T10:08:02.064Z,52313.26
2022-11-13T10:10:55.859Z,52329.74
2022-11-13T10:13:49.212Z,52313.26
2022-11-13T10:16:40.904Z,52314.47
2022-11-13T10:19:35.969Z,52323.30
2022-11-13T10:22:34.143Z,52320.09
2022-11-13T10:25:26.749Z,52328.94
2022-11-13T10:31:28.863Z,52297.99
2022-11-13T10:34:19.606Z,52307.64
2022-11-13T10:37:21.899Z,52309.64
2022-11-13T10:40:12.390Z,52287.14
2022-11-13T10:43:15.944Z,52302.81
2022-11-13T10:46:06.944Z,52285.13
2022-11-13T10:48:57.842Z,52299.20
2022-11-13T10:51:56.497Z,52303.62
2022-11-13T10:54:46.888Z,52294.77
2022-11-13T10:57:37.147Z,52286.74
2022-11-13T11:00:32.693Z,52297.59
2022-11-13T11:03:23.699Z,52274.68
2022-11-13T11:06:13.763Z,52285.13
2022-11-13T11:09:24.274Z,52295.58
2022-11-13T11:12:23.115Z,52274.68
2022-11-13T11:15:23.517Z,52282.72
2022-11-13T11:18:23.645Z,52279.10
2022-11-13T11:21:15.448Z,52275.48
2022-11-13T11:24:06.919Z,52273.88
2022-11-13T11:27:00.845Z,52277.09
2022-11-13T11:29:54.875Z,52272.68
2022-11-13T11:32:46.746Z,52281.52
2022-11-13T11:35:42.008Z,52260.62
2022-11-13T11:38:34.848Z,52262.23
2022-11-13T11:41:33.797Z,52262.22
2022-11-13T11:44:26.667Z,52252.18
2022-11-13T11:47:18.635Z,52253.79
2022-11-13T11:50:12.100Z,52218.02
2022-11-13T11:53:07.598Z,52216.41
2022-11-13T11:56:17.038Z,52203.95
2022-11-13T11:59:13.614Z,52219.23
2022-11-13T12:02:35.023Z,52194.30
2022-11-13T12:05:27.386Z,52189.49
2022-11-13T12:08:23.803Z,52180.65
2022-11-13T12:11:19.005Z,52168.59
2022-11-13T12:14:14.523Z,52188.68
2022-11-13T12:17:17.761Z,52180.65
2022-11-13T12:20:23.186Z,52211.19
2022-11-13T12:23:21.450Z,52204.76
2022-11-13T12:26:14.042Z,52184.66
2022-11-13T12:29:08.134Z,52190.29
2022-11-13T12:32:05.168Z,52181.85
2022-11-13T12:34:57.062Z,52202.35
2022-11-13T12:37:51.659Z,52176.63
2022-11-13T12:40:44.856Z,52191.90
2022-11-13T12:43:44.499Z,52170.20
2022-11-13T12:46:39.293Z,52166.98
2022-11-13T12:49:34.372Z,52172.21
2022-11-13T12:52:24.861Z,52178.24
2022-11-13T12:55:29.307Z,52180.24
2022-11-13T12:58:23.312Z,52160.96
2022-11-13T13:01:20.254Z,52169.39
2022-11-13T13:04:46.234Z,52171.80
2022-11-13T13:08:04.935Z,52167.79
2022-11-13T13:11:01.755Z,52181.45
2022-11-13T13:13:55.796Z,52174.62
2022-11-13T13:16:46.412Z,52167.38
2022-11-13T13:19:37.271Z,52168.19
2022-11-13T13:22:32.045Z,52168.19
2022-11-13T13:25:30.356Z,52179.45
2022-11-13T13:28:24.550Z,52173.41
2022-11-13T13:31:23.654Z,52187.07
2022-11-13T13:34:23.811Z,52181.45
2022-11-13T13:37:19.605Z,52187.88
2022-11-13T13:40:19.471Z,52185.47
2022-11-13T13:43:17.691Z,52199.13
2022-11-13T13:46:12.367Z,52205.56
2022-11-13T13:49:06.386Z,52216.82
2022-11-13T13:51:57.100Z,52225.66
2022-11-13T13:54:47.741Z,52228.07
2022-11-13T13:57:41.805Z,52236.91
2022-11-13T14:00:32.141Z,52243.34
2022-11-13T14:03:25.270Z,52252.58
2022-11-13T14:06:22.047Z,52258.61
2022-11-13T14:09:12.830Z,52271.07
2022-11-13T14:12:09.250Z,52271.87
2022-11-13T14:15:00.346Z,52280.71
2022-11-13T14:17:50.397Z,52286.34
2022-11-13T14:20:46.792Z,52276.29
2022-11-13T14:23:38.974Z,52277.50
2022-11-13T14:26:29.327Z,52277.49
2022-11-13T14:29:34.868Z,52292.76
2022-11-13T14:32:26.468Z,52285.13
2022-11-13T14:35:21.810Z,52302.41
2022-11-13T14:38:20.687Z,52314.06
2022-11-13T14:41:21.325Z,52292.37
2022-11-13T14:44:13.253Z,52290.35
2022-11-13T14:47:02.515Z,52299.60
2022-11-13T14:49:52.761Z,52302.41
2022-11-13T14:52:42.963Z,52314.87
2022-11-13T14:55:34.865Z,52306.43
2022-11-13T14:58:34.175Z,52316.88
2022-11-13T15:01:25.766Z,52323.31
2022-11-13T15:04:16.130Z,52320.09
2022-11-13T15:07:19.788Z,52310.45
2022-11-13T15:10:12.623Z,52314.46
2022-11-13T15:13:02.962Z,52307.64
2022-11-13T15:15:53.200Z,52324.91
2022-11-13T15:18:43.605Z,52314.07
2022-11-13T15:21:33.754Z,52331.34
2022-11-13T15:24:24.212Z,52330.54
2022-11-13T15:27:16.500Z,52322.50
2022-11-13T15:30:07.704Z,52309.64
2022-11-13T15:32:59.625Z,52326.52
2022-11-13T15:35:50.031Z,52319.29
2022-11-13T15:38:40.695Z,52326.93
2022-11-13T15:41:33.166Z,52338.18
2022-11-13T15:44:23.537Z,52341.79
2022-11-13T15:47:21.529Z,52330.95
2022-11-13T15:50:14.553Z,52319.69
2022-11-13T15:53:05.761Z,52327.32
2022-11-13T15:55:56.527Z,52311.66
2022-11-13T15:58:46.913Z,52322.91
2022-11-13T16:01:37.737Z,52327.32
2022-11-13T16:04:50.486Z,52336.57
2022-11-13T16:07:42.149Z,52322.10
2022-11-13T16:10:32.752Z,52321.70
2022-11-13T16:13:22.793Z,52339.38
2022-11-13T16:16:13.703Z,52344.61
2022-11-13T16:19:04.370Z,52336.97
2022-11-13T16:21:55.704Z,52329.34
2022-11-13T16:24:45.693Z,52346.21
2022-11-13T16:27:36.578Z,52345.41
2022-11-13T16:30:28.841Z,52338.98
2022-11-13T16:33:19.162Z,52343.40
2022-11-13T16:36:12.841Z,52333.36
2022-11-13T16:39:03.840Z,52360.28
2022-11-13T16:41:54.526Z,52343.80
2022-11-13T16:44:45.569Z,52336.97
2022-11-13T16:47:36.883Z,52351.04
2022-11-13T16:50:29.868Z,52339.38
2022-11-13T16:53:20.830Z,52344.20
2022-11-13T16:56:17.117Z,52345.01
2022-11-13T16:59:07.242Z,52342.60
2022-11-13T17:02:00.548Z,52351.04
2022-11-13T17:04:51.060Z,52350.23
2022-11-13T17:07:41.239Z,52359.07
2022-11-13T17:10:33.048Z,52361.09
2022-11-13T17:13:23.894Z,52348.63
2022-11-13T17:16:15.608Z,52362.70
2022-11-13T17:19:07.212Z,52367.11
2022-11-13T17:21:57.913Z,52358.67
2022-11-13T17:24:49.298Z,52367.91
2022-11-13T17:27:39.558Z,52359.48
2022-11-13T17:30:29.649Z,52349.43
2022-11-13T17:33:20.376Z,52360.68
2022-11-13T17:36:12.062Z,52368.32
2022-11-13T17:39:02.804Z,52347.82
2022-11-13T17:41:54.780Z,52369.52
2022-11-13T17:44:45.458Z,52357.87
2022-11-13T17:47:38.110Z,52361.49
2022-11-13T17:50:29.189Z,52358.67
2022-11-13T17:53:19.812Z,52362.70
2022-11-13T17:56:13.941Z,52351.84
2022-11-13T17:59:05.217Z,52361.89
2022-11-13T18:01:55.535Z,52350.63
2022-11-13T18:04:45.709Z,52347.42
2022-11-13T18:07:35.973Z,52334.96
2022-11-13T18:10:25.901Z,52359.88
2022-11-13T18:13:16.278Z,52351.44
2022-11-13T18:16:11.097Z,52362.70
2022-11-13T18:19:03.580Z,52340.18
2022-11-13T18:21:54.417Z,52350.23
2022-11-13T18:24:44.775Z,52357.87
2022-11-13T18:27:35.313Z,52349.02
2022-11-13T18:30:25.615Z,52367.52
2022-11-13T18:33:16.088Z,52350.23
2022-11-13T18:36:06.976Z,52357.06
2022-11-13T18:38:57.455Z,52366.30
2022-11-13T18:41:48.146Z,52364.70
2022-11-13T18:44:38.493Z,52350.23
2022-11-13T18:47:28.801Z,52360.68
2022-11-13T18:50:20.029Z,52348.63
2022-11-13T18:53:10.214Z,52353.85
2022-11-13T18:56:03.504Z,52342.20
2022-11-13T18:58:54.530Z,52370.73
2022-11-13T19:01:44.869Z,52373.54
2022-11-13T19:04:37.725Z,52366.71
2022-11-13T19:07:28.275Z,52350.23
2022-11-13T19:10:19.883Z,52357.46
2022-11-13T19:13:09.806Z,52366.71
2022-11-13T19:16:00.857Z,52360.28
2022-11-13T19:18:55.220Z,52357.46
2022-11-13T19:21:45.037Z,52371.93
2022-11-13T19:24:35.942Z,52353.45
2022-11-13T19:27:26.439Z,52353.05
2022-11-13T19:30:17.037Z,52353.85
2022-11-13T19:33:07.070Z,52355.46
2022-11-13T19:35:57.707Z,52365.10
2022-11-13T19:38:48.014Z,52371.93
2022-11-13T19:41:38.348Z,52370.32
2022-11-13T19:44:29.081Z,52359.88
2022-11-13T19:47:19.391Z,52357.46
2022-11-13T19:50:11.656Z,52370.73
2022-11-13T19:53:01.847Z,52353.05
2022-11-13T19:55:57.862Z,52354.25
2022-11-13T19:58:48.357Z,52369.93
2022-11-13T20:01:38.564Z,52358.27
2022-11-13T20:04:29.037Z,52349.43
2022-11-13T20:07:19.678Z,52360.28
2022-11-13T20:10:11.664Z,52375.96
2022-11-13T20:13:02.750Z,52350.64
2022-11-13T20:15:57.208Z,52362.29
2022-11-13T20:18:47.493Z,52372.34
2022-11-13T20:21:37.633Z,52362.29
2022-11-13T20:24:27.668Z,52364.70
2022-11-13T20:27:17.792Z,52382.79
2022-11-13T20:30:10.681Z,52367.11
2022-11-13T20:33:00.946Z,52374.75
2022-11-13T20:35:57.411Z,52355.46
2022-11-13T20:38:52.165Z,52373.14
2022-11-13T20:41:42.124Z,52370.33
2022-11-13T20:44:34.454Z,52378.37
2022-11-13T20:47:25.003Z,52376.36
2022-11-13T20:50:16.308Z,52379.17
2022-11-13T20:53:06.592Z,52377.16
2022-11-13T20:55:57.387Z,52371.53
2022-11-13T20:58:47.647Z,52365.10
2022-11-13T21:01:38.262Z,52375.96
2022-11-13T21:04:28.704Z,52383.19
2022-11-13T21:07:18.876Z,52386.80
2022-11-13T21:10:10.735Z,52361.89
2022-11-13T21:13:01.042Z,52392.03
2022-11-13T21:15:51.337Z,52373.14
2022-11-13T21:18:42.065Z,52374.75
2022-11-13T21:21:32.578Z,52369.52
2022-11-13T21:24:23.955Z,52379.17
2022-11-13T21:27:15.342Z,52364.30
2022-11-13T21:30:05.862Z,52386.40
2022-11-13T21:32:56.632Z,52371.54
2022-11-13T21:35:47.367Z,52369.13
2022-11-13T21:38:38.069Z,52364.30
2022-11-13T21:41:28.987Z,52370.33
2022-11-13T21:44:19.455Z,52367.51
2022-11-13T21:47:10.088Z,52379.98
2022-11-13T21:50:00.482Z,52388.81
2022-11-13T21:52:51.210Z,52362.29
2022-11-13T21:55:41.810Z,52386.00
2022-11-13T21:58:35.927Z,52378.36
2022-11-13T22:01:26.736Z,52382.79
2022-11-13T22:04:16.723Z,52373.54
2022-11-13T22:07:06.820Z,52386.80
2022-11-13T22:09:57.638Z,52385.60
2022-11-13T22:12:48.747Z,52391.23
2022-11-13T22:15:38.869Z,52381.58
2022-11-13T22:18:29.640Z,52392.03
2022-11-13T22:21:20.418Z,52371.93
2022-11-13T22:24:11.860Z,52381.18
2022-11-13T22:27:02.533Z,52389.21
2022-11-13T22:29:52.889Z,52389.21
2022-11-13T22:32:43.732Z,52379.57
2022-11-13T22:35:34.856Z,52389.62
2022-11-13T22:38:25.422Z,52382.79
2022-11-13T22:41:22.632Z,52378.77
2022-11-13T22:44:15.675Z,52393.24
2022-11-13T22:47:06.167Z,52390.02
2022-11-13T22:49:57.051Z,52390.42
2022-11-13T22:52:47.337Z,52381.58
2022-11-13T22:55:38.397Z,52379.57
2022-11-13T22:58:28.613Z,52391.63
2022-11-13T23:01:21.188Z,52392.83
2022-11-13T23:04:14.004Z,52400.46
2022-11-13T23:07:05.760Z,52395.24
2022-11-13T23:09:55.977Z,52384.39
2022-11-13T23:12:46.515Z,52394.04
2022-11-13T23:15:37.001Z,52389.62
2022-11-13T23:18:27.784Z,52385.60
2022-11-13T23:21:18.688Z,52386.80
2022-11-13T23:24:11.427Z,52369.12
2022-11-13T23:27:02.585Z,52374.35
2022-11-13T23:29:54.128Z,52392.83
2022-11-13T23:32:44.462Z,52380.37
2022-11-13T23:35:34.579Z,52398.05
2022-11-13T23:38:25.519Z,52389.62
2022-11-13T23:41:15.733Z,52391.23
2022-11-13T23:44:09.492Z,52388.81
2022-11-13T23:47:00.691Z,52385.20
2022-11-13T23:49:51.734Z,52379.98
2022-11-13T23:52:42.534Z,52388.41
2022-11-13T23:55:32.862Z,52387.61
2022-11-13T23:58:23.550Z,52402.07
